Varna, Bulgaria
Current Conditions -  °F | °C
As of 4:30 AM on Saturday 25 Oct 2014 (Local Time) from LBWN Reporting Station
Light Rain Light Rain  
Wind Chill: 32°   Ceiling: 2100
Heat Index: 43°   Visibility: 2.2mi
Dew Point: 41°   Wind: 29mph
Humidity: 93%   Direction: 10°N
Pressure: 29.97"   Gusts: 40mph
Location:  43.21°N, 27.9°E
Report Text: LBWN 250130Z 01013G18MPS 3600 -RA FEW018 BKN021 OVC030 06/05 Q1015 NOSIG
Loading
Personal Weather Stations






























Interactive Weather Map
Tropical Storm Tracking
New forecast layout! Learn more

10-Day Weather Forecast

Advertisements
Track Severe Weather on mobile